Bei Facebook empfehlenBei Twitter postenGoogle plusPinterest

Das Wetter im Erzgebirge am 25.02.2017

Wetter und Klima am 25.02.2017 Holzhau im Erzgebirge (630m ü.NN)
Letzte gemessene Temperatur und Uhrzeit der Messung23:45:00 Uhr3.00 °C
Temperatur (Maximum / Höchstwert) und Uhrzeit der Messung15:30:00 Uhr5.80 °C
Temperatur (Minimum / Tiefstwert) und Uhrzeit der Messung00:00:00-3.60 °C
Errechneter Absolutwert der Temperaturschwankungen zwischen Tmin und Tmax des Tages9.40 K
Errechnete Tagesmitteltemperatur0.83750 °C
Gesamt - Niederschlag des Tages (in flüssiger Form)1.55 Liter / m²
Luftdruck (Maximum / Höchstwert) und Zeitpunkt der Messung12:00:00 Uhr1017.80 hPa
Luftdruck (Minimum / Tiefstwert) und Zeitpunkt der Messung01:00:00 Uhr1012.80 hPa
Errechneter Absolutwert der Luftdruckschwankungen des Tages5.00 hPa
Höchste gemessene Windgeschwindigkeit und Uhrzeit der Messung06:15:00 Uhr9.72 km/h
Errechnete Windhäufigkeit in Relation zu den Messwerten des Tages64.58333 %
Niedrigste Windkühle (Windchill) und Zeitpunkt der Messung06:15:00 Uhr-6.10 °C
Taupunkt (Maximum / Höchstwert) und Uhrzeit der Messung12:30:00 Uhr-1.30 °C
Taupunkt (Minimum / Tiefstwert) und Uhrzeit der Messung00:00:00-4.80 °C
Anzahl der automatisch eingelesenen Messwerte 96

Detaillierte Wetter- und Klima- Messwerte für den 25.02.2017 in Holzhau im Erzgebirge (630m ü.NN)
ZeitTemperaturLuftdruckRel. LuftfeuchteWindWindrichtungWindchillTaupunktNiederschlag l/m²
23:45:003.00 °C1013.30 hPa64.00 %1.08 km/hSSW3.00 °C-3.10 °C1.55
23:30:002.90 °C1013.70 hPa65.00 %2.16 km/hSW2.90 °C-3.00 °C1.55
23:15:002.80 °C1013.80 hPa65.00 %-3.10 °C1.55
23:00:002.80 °C1013.70 hPa66.00 %1.80 km/hSW2.80 °C-2.90 °C1.55
22:45:002.60 °C1013.90 hPa68.00 %6.48 km/hSW0.80 °C-2.70 °C1.55
22:30:002.50 °C1013.80 hPa68.00 %1.80 km/hSW2.50 °C-2.80 °C1.55
22:15:002.40 °C1013.60 hPa68.00 %-2.90 °C1.55
22:00:002.30 °C1014.00 hPa70.00 %2.16 km/hSW2.30 °C-2.60 °C1.55
21:45:002.10 °C1013.90 hPa70.00 %1.80 km/hSSW2.10 °C-2.80 °C1.55
21:30:001.80 °C1014.20 hPa72.00 %-2.70 °C1.55
21:15:001.90 °C1014.40 hPa72.00 %4.32 km/hS1.90 °C-2.60 °C1.55
21:00:001.90 °C1014.70 hPa72.00 %5.40 km/hSSW0.40 °C-2.60 °C1.55
20:45:002.10 °C1014.90 hPa72.00 %1.44 km/hSSW2.10 °C-2.40 °C1.55
20:30:002.10 °C1014.90 hPa73.00 %-2.20 °C1.55
20:15:002.10 °C1015.00 hPa74.00 %-2.00 °C1.55
20:00:001.90 °C1015.10 hPa74.00 %1.08 km/hSSO1.90 °C-2.20 °C1.55
19:45:001.60 °C1015.10 hPa75.00 %-2.30 °C1.55
19:30:001.30 °C1015.40 hPa77.00 %-2.30 °C1.55
19:15:000.90 °C1015.50 hPa77.00 %-2.70 °C1.55
19:00:000.90 °C1015.60 hPa77.00 %-2.70 °C1.55
18:45:000.90 °C1015.60 hPa76.00 %-2.80 °C1.55
18:30:000.90 °C1015.60 hPa75.00 %-3.00 °C1.55
18:15:000.90 °C1015.60 hPa73.00 %-3.40 °C1.55
18:00:001.20 °C1015.30 hPa71.00 %-3.50 °C1.55
17:45:001.60 °C1015.50 hPa69.00 %-3.50 °C1.55
17:30:002.20 °C1015.40 hPa67.00 %1.08 km/hSW2.20 °C-3.30 °C1.55
17:15:003.10 °C1015.30 hPa65.00 %2.16 km/hSSW3.10 °C-2.80 °C1.55
17:00:004.10 °C1015.90 hPa63.00 %1.08 km/hWSW4.10 °C-2.30 °C1.55
16:45:004.90 °C1015.60 hPa62.00 %-1.80 °C1.55
16:30:005.00 °C1015.80 hPa61.00 %3.60 km/hSW5.00 °C-1.90 °C1.55
16:15:005.10 °C1015.80 hPa61.00 %-1.80 °C1.55
16:00:005.10 °C1016.00 hPa61.00 %-1.80 °C1.55
15:45:005.10 °C1016.30 hPa61.00 %-1.80 °C1.55
15:30:005.80 °C1016.50 hPa58.00 %1.08 km/hSO5.80 °C-1.80 °C1.55
15:15:005.60 °C1016.50 hPa57.00 %3.24 km/hSW5.60 °C-2.20 °C1.55
15:00:005.40 °C1016.30 hPa57.00 %4.32 km/hWNW5.40 °C-2.40 °C1.55
14:45:005.20 °C1016.50 hPa59.00 %5.04 km/hWSW4.30 °C-2.10 °C1.55
14:30:005.20 °C1016.50 hPa58.00 %7.92 km/hSSW3.40 °C-2.40 °C1.55
14:15:005.00 °C1016.60 hPa60.00 %1.08 km/hW5.00 °C-2.10 °C1.55
14:00:004.90 °C1016.80 hPa61.00 %6.12 km/hSSW3.60 °C-2.00 °C1.55
13:45:004.90 °C1016.90 hPa60.00 %-2.20 °C1.55
13:30:004.80 °C1017.00 hPa61.00 %5.04 km/hNNW3.80 °C-2.10 °C1.03
13:15:004.30 °C1017.30 hPa65.00 %0.36 km/hWNW4.30 °C-1.70 °C1.03
13:00:004.20 °C1017.50 hPa65.00 %5.76 km/hNNW2.90 °C-1.80 °C1.03
12:45:003.90 °C1017.50 hPa67.00 %6.12 km/hWNW2.40 °C-1.70 °C1.03
12:30:003.40 °C1017.60 hPa71.00 %2.16 km/hNNW3.40 °C-1.30 °C1.03
12:15:002.70 °C1017.70 hPa71.00 %4.32 km/hWNW2.70 °C-2.00 °C1.03
12:00:002.00 °C1017.80 hPa71.00 %5.04 km/hW0.70 °C-2.70 °C0.52
11:45:002.20 °C1017.80 hPa71.00 %6.12 km/hWNW0.50 °C-2.50 °C0.52
11:30:002.30 °C1017.50 hPa74.00 %4.68 km/hW2.30 °C-1.80 °C0.52
11:15:001.80 °C1017.50 hPa75.00 %-2.10 °C 
11:00:001.60 °C1017.60 hPa77.00 %3.96 km/hWNW1.60 °C-2.00 °C 
10:45:001.00 °C1017.60 hPa79.00 %1.80 km/hW1.00 °C-2.20 °C 
10:30:000.60 °C1017.50 hPa79.00 %5.40 km/hW-1.10 °C-2.60 °C 
10:15:000.30 °C1017.20 hPa82.00 %2.52 km/hW0.30 °C-2.40 °C 
10:00:000.20 °C1017.10 hPa83.00 %6.84 km/hW-2.10 °C-2.30 °C 
09:45:00-0.10 °C1017.00 hPa85.00 %5.76 km/hW-2.00 °C-2.60 °C 
09:30:00-0.40 °C1016.90 hPa86.00 %1.44 km/hW-0.40 °C-2.70 °C 
09:15:00-0.70 °C1016.70 hPa87.00 %-2.80 °C 
09:00:00-1.10 °C1016.60 hPa88.00 %2.88 km/hWNW-1.10 °C-3.00 °C 
08:45:00-1.30 °C1016.30 hPa89.00 %-3.10 °C 
08:30:00-1.60 °C1016.10 hPa90.00 %-3.20 °C 
08:15:00-1.90 °C1016.00 hPa91.00 %1.44 km/hNW-1.90 °C-3.30 °C 
08:00:00-2.10 °C1015.90 hPa91.00 %-3.50 °C 
07:45:00-2.20 °C1015.70 hPa91.00 %1.08 km/hW-2.20 °C-3.60 °C 
07:30:00-2.20 °C1015.60 hPa91.00 %1.80 km/hNW-2.20 °C-3.60 °C 
07:15:00-2.20 °C1015.50 hPa91.00 %1.44 km/hWNW-2.20 °C-3.60 °C 
07:00:00-2.40 °C1015.20 hPa91.00 %-3.80 °C 
06:45:00-2.30 °C1014.90 hPa91.00 %-3.70 °C 
06:30:00-2.40 °C1014.90 hPa91.00 %2.52 km/hW-2.40 °C-3.80 °C 
06:15:00-2.40 °C1014.70 hPa91.00 %9.72 km/hWNW-6.10 °C-3.80 °C 
06:00:00-2.40 °C1014.80 hPa91.00 %6.48 km/hWNW-5.00 °C-3.80 °C 
05:45:00-2.20 °C1014.40 hPa91.00 %-3.60 °C 
05:30:00-2.20 °C1014.30 hPa91.00 %6.48 km/hWNW-4.80 °C-3.60 °C 
05:15:00-2.20 °C1014.40 hPa91.00 %5.40 km/hWNW-4.30 °C-3.60 °C 
05:00:00-2.10 °C1014.30 hPa91.00 %-3.50 °C 
04:45:00-2.10 °C1014.20 hPa91.00 %8.28 km/hNW-5.30 °C-3.50 °C 
04:30:00-2.00 °C1014.10 hPa91.00 %-3.40 °C 
04:15:00-1.90 °C1013.80 hPa91.00 %5.40 km/hWSW-3.90 °C-3.30 °C 
04:00:00-1.90 °C1013.80 hPa91.00 %-3.30 °C 
03:45:00-1.90 °C1013.80 hPa91.00 %1.80 km/hW-1.90 °C-3.30 °C 
03:30:00-1.90 °C1013.80 hPa91.00 %3.24 km/hW-1.90 °C-3.30 °C 
03:15:00-1.90 °C1013.70 hPa91.00 %5.40 km/hWNW-3.90 °C-3.30 °C 
03:00:00-1.90 °C1013.50 hPa91.00 %1.80 km/hW-1.90 °C-3.30 °C 
02:45:00-1.90 °C1013.60 hPa91.00 %1.80 km/hWNW-1.90 °C-3.30 °C 
02:30:00-1.90 °C1013.40 hPa91.00 %2.52 km/hW-1.90 °C-3.30 °C 
02:15:00-1.90 °C1013.40 hPa91.00 %-3.30 °C 
02:00:00-1.90 °C1013.30 hPa91.00 %-3.30 °C 
01:45:00-1.90 °C1013.50 hPa91.00 %6.48 km/hNW-4.40 °C-3.30 °C 
01:30:00-1.90 °C1013.20 hPa92.00 %-3.20 °C 
01:15:00-2.10 °C1012.90 hPa92.00 %-3.40 °C 
01:00:00-2.10 °C1012.80 hPa92.00 %2.52 km/hW-2.10 °C-3.40 °C 
00:45:00-2.20 °C1013.00 hPa92.00 %1.08 km/hSSW-2.20 °C-3.50 °C 
00:30:00-2.60 °C1012.90 hPa93.00 %4.32 km/hW-2.60 °C-3.70 °C 
00:15:00-3.00 °C1012.80 hPa93.00 %1.80 km/hNW-3.00 °C-4.10 °C 
00:00:00-3.60 °C1012.90 hPa92.00 %1.80 km/hSW-3.60 °C-4.80 °C 

Permanenter Link zu dieser Seite: Wetter im Erzgebirge am 25.02.2017
Performance-Info: Die Erstellung der Seite / Statistik(en) / Tabelle(n) erforderte 5 Datenbankserver-Abfrage(n) und dauerte 97 Millisekunden. (Dieser Messwert ist von der Gesamt-Auslastung des Servers abhängig.)
Erzgebirge - Wetter | Erzgebirge - Wetter (Mobilgeräte) | Komplette Klimadatenbank